Time;durP1;ratioP1;P1;durP2;ratioP2;P2;SDS_P1;SDS_P2;PMS_P1;PMS_P2;Temp;Humidity;BMP_temperature;BMP_pressure;BME280_temperature;BME280_humidity;BME280_pressure;Samples;Min_cycle;Max_cycle;Signal;HPM_P1;HPM_P2
2021/07/26 00:02:21;;;;;;;5.68;3.28;;;24.60;95.20;;;;;;5026387;28;20059;-75
2021/07/26 00:04:47;;;;;;;2.95;2.65;;;24.70;95.20;;;;;;5031861;28;20048;-75
2021/07/26 00:07:12;;;;;;;2.72;2.50;;;24.50;95.40;;;;;;5022415;28;20536;-75
2021/07/26 00:09:38;;;;;;;2.50;2.30;;;24.70;95.40;;;;;;5027685;28;20046;-75
2021/07/26 00:12:05;;;;;;;3.25;2.53;;;24.60;95.40;;;;;;5025500;28;20055;-75
2021/07/26 00:14:31;;;;;;;3.08;2.75;;;24.70;95.20;;;;;;5045591;28;20047;-75
2021/07/26 00:16:57;;;;;;;2.63;2.42;;;24.60;94.80;;;;;;5028826;28;20029;-75
2021/07/26 00:19:23;;;;;;;2.97;2.33;;;24.60;95.00;;;;;;5028666;28;20034;-75
2021/07/26 00:21:50;;;;;;;2.42;2.22;;;24.70;94.70;;;;;;5026043;28;20487;-75
2021/07/26 00:24:19;;;;;;;5.00;2.53;;;24.60;95.10;;;;;;5033246;28;20476;-73
2021/07/26 00:26:46;;;;;;;3.95;2.28;;;24.50;95.60;;;;;;5028007;28;20041;-73
2021/07/26 00:29:11;;;;;;;1.83;1.65;;;24.70;95.10;;;;;;5043642;28;20391;-75
2021/07/26 00:31:37;;;;;;;2.78;2.30;;;24.60;94.90;;;;;;5029411;28;20041;-76
2021/07/26 00:34:15;;;;;;;3.15;2.35;;;24.60;94.80;;;;;;5021913;28;20120;-75
2021/07/26 00:36:43;;;;;;;2.72;2.00;;;24.50;93.80;;;;;;5058005;28;20368;-76
2021/07/26 00:39:14;;;;;;;3.50;2.15;;;24.30;94.00;;;;;;5039292;28;20052;-76
2021/07/26 00:41:40;;;;;;;2.92;1.70;;;24.50;93.70;;;;;;5030823;28;20041;-75
2021/07/26 00:44:06;;;;;;;2.67;1.63;;;24.50;93.50;;;;;;5037832;28;20044;-75
2021/07/26 00:46:32;;;;;;;2.30;2.10;;;24.60;93.20;;;;;;5044452;28;20095;-76
2021/07/26 00:49:00;;;;;;;3.25;1.98;;;24.50;93.10;;;;;;5040107;28;20530;-75
2021/07/26 00:54:48;;;;;;;3.47;2.10;;;24.50;92.30;;;;;;4977564;28;20075;-75
2021/07/26 00:57:13;;;;;;;1.90;1.80;;;24.30;92.50;;;;;;5039438;28;20057;-75
2021/07/26 00:59:39;;;;;;;3.42;2.17;;;24.40;91.90;;;;;;5034590;28;20443;-77
2021/07/26 01:02:05;;;;;;;2.33;1.80;;;24.40;91.70;;;;;;5039853;28;20137;-75
2021/07/26 01:04:31;;;;;;;2.17;1.98;;;24.50;91.50;;;;;;5027545;28;20538;-75
2021/07/26 01:06:57;;;;;;;1.60;1.50;;;24.50;91.00;;;;;;5036524;28;20391;-75
2021/07/26 01:09:23;;;;;;;3.08;1.90;;;24.60;91.20;;;;;;5031014;28;20056;-75
2021/07/26 01:11:48;;;;;;;2.25;2.10;;;24.40;91.40;;;;;;5044196;28;20057;-75
2021/07/26 01:14:15;;;;;;;2.15;1.90;;;24.30;91.30;;;;;;5043601;28;20044;-75
2021/07/26 01:16:42;;;;;;;3.45;1.70;;;24.50;91.10;;;;;;5037421;28;20029;-75
2021/07/26 01:19:08;;;;;;;2.40;1.60;;;24.50;90.80;;;;;;5032750;28;20040;-75
2021/07/26 01:21:33;;;;;;;2.00;1.85;;;24.40;90.80;;;;;;5044229;28;20051;-74
2021/07/26 01:24:02;;;;;;;2.90;1.98;;;24.20;91.20;;;;;;5035888;28;20376;-75
2021/07/26 01:26:29;;;;;;;4.10;2.55;;;24.20;92.30;;;;;;5038646;28;20033;-75
2021/07/26 01:28:57;;;;;;;2.30;1.48;;;24.30;92.80;;;;;;5034920;28;20124;-75
2021/07/26 01:31:24;;;;;;;2.10;1.90;;;24.30;93.40;;;;;;5024885;28;20498;-74
2021/07/26 01:33:50;;;;;;;2.03;1.92;;;24.30;92.80;;;;;;5028319;28;20091;-74
2021/07/26 01:36:17;;;;;;;2.90;1.85;;;24.30;92.70;;;;;;5024576;28;20128;-74
2021/07/26 01:38:45;;;;;;;2.03;1.92;;;24.10;92.90;;;;;;5044078;28;20057;-74
2021/07/26 01:41:21;;;;;;;3.30;2.08;;;24.10;93.50;;;;;;5025405;28;20044;-75
2021/07/26 01:44:02;;;;;;;2.47;1.70;;;24.10;93.80;;;;;;5029408;28;20582;-74
2021/07/26 01:46:48;;;;;;;2.00;1.80;;;24.10;94.30;;;;;;5044635;28;20037;-75
2021/07/26 01:49:52;;;;;;;3.17;1.60;;;24.00;94.90;;;;;;5034552;28;20053;-76
2021/07/26 01:52:19;;;;;;;2.15;1.60;;;23.80;95.70;;;;;;4979804;28;20620;-74
2021/07/26 01:54:45;;;;;;;41.10;4.85;;;23.70;96.80;;;;;;5036290;28;20072;-75
2021/07/26 01:57:11;;;;;;;28.67;3.92;;;23.40;99.00;;;;;;5017320;28;20045;-77
2021/07/26 01:59:37;;;;;;;13.27;4.15;;;23.20;99.90;;;;;;5043718;28;20032;-77
2021/07/26 02:02:03;;;;;;;26.02;4.25;;;23.10;99.90;;;;;;5044061;28;20525;-76
2021/07/26 02:04:29;;;;;;;7.93;2.80;;;23.10;99.90;;;;;;5036510;28;20032;-77
2021/07/26 02:06:54;;;;;;;3.00;1.80;;;23.10;99.90;;;;;;5027846;28;20040;-75
2021/07/26 02:09:20;;;;;;;91.18;12.07;;;22.90;99.90;;;;;;5051479;28;20045;-76
2021/07/26 02:11:45;;;;;;;244.52;30.67;;;22.80;99.90;;;;;;5044594;28;20049;-68
2021/07/26 02:14:11;;;;;;;601.45;81.50;;;22.70;99.90;;;;;;5041463;28;20033;-75
2021/07/26 02:16:38;;;;;;;160.10;22.08;;;22.40;99.90;;;;;;5029603;28;20068;-74
2021/07/26 02:19:04;;;;;;;51.47;7.63;;;22.10;99.90;;;;;;5039991;28;20037;-76
2021/07/26 02:21:31;;;;;;;66.47;11.10;;;21.90;99.90;;;;;;5029639;28;20584;-78
2021/07/26 02:23:56;;;;;;;9.23;3.55;;;21.80;99.90;;;;;;5037056;28;20029;-77
2021/07/26 02:29:44;;;;;;;11.20;4.28;;;21.60;99.90;;;;;;5008930;28;22113;-76
2021/07/26 02:32:10;;;;;;;12.50;4.75;;;21.60;99.90;;;;;;5039465;28;20033;-74
2021/07/26 02:34:35;;;;;;;4.53;3.70;;;21.60;99.90;;;;;;5026226;28;20049;-76
2021/07/26 02:37:02;;;;;;;4.72;3.28;;;21.70;99.90;;;;;;5043776;28;20029;-75
2021/07/26 02:39:28;;;;;;;5.70;3.22;;;21.90;99.90;;;;;;5037786;28;20033;-76
2021/07/26 02:41:53;;;;;;;4.65;3.00;;;21.80;99.90;;;;;;5040344;28;20553;-74
2021/07/26 02:44:19;;;;;;;5.28;2.92;;;22.00;99.90;;;;;;5037488;28;20056;-76
2021/07/26 02:46:44;;;;;;;4.55;3.10;;;22.00;99.90;;;;;;5040797;28;20044;-74
2021/07/26 02:49:10;;;;;;;4.00;2.97;;;22.10;99.90;;;;;;5030855;28;20373;-75
2021/07/26 02:51:35;;;;;;;69.53;12.48;;;22.10;99.90;;;;;;5025111;28;20044;-77
2021/07/26 02:54:01;;;;;;;9.48;3.83;;;21.90;99.90;;;;;;5056968;28;20038;-76
2021/07/26 02:56:30;;;;;;;13.07;4.47;;;21.70;99.90;;;;;;5046013;28;20083;-76
2021/07/26 02:58:55;;;;;;;6.28;4.07;;;21.80;99.90;;;;;;5026036;28;20041;-77
2021/07/26 03:01:21;;;;;;;5.43;4.05;;;21.80;99.90;;;;;;5034793;28;20052;-78
2021/07/26 03:03:47;;;;;;;8.38;5.35;;;21.80;99.90;;;;;;5061900;28;20052;-75
2021/07/26 03:06:16;;;;;;;6.05;4.65;;;22.00;99.90;;;;;;5031795;28;20045;-76
2021/07/26 03:08:42;;;;;;;5.28;3.92;;;22.00;99.90;;;;;;5020334;28;20053;-76
2021/07/26 03:11:10;;;;;;;5.28;4.53;;;22.00;99.90;;;;;;5042325;28;21691;-77
2021/07/26 03:13:37;;;;;;;6.78;4.75;;;22.00;99.90;;;;;;5044548;28;20394;-75
2021/07/26 03:16:10;;;;;;;5.90;4.53;;;22.00;99.90;;;;;;5030216;28;20415;-75
2021/07/26 03:18:36;;;;;;;6.38;5.35;;;22.00;99.90;;;;;;5032061;28;20519;-75
2021/07/26 03:21:03;;;;;;;8.27;5.00;;;22.00;99.90;;;;;;5029841;28;20045;-75
2021/07/26 03:23:29;;;;;;;10.27;5.93;;;22.00;99.90;;;;;;5029655;28;20037;-76
2021/07/26 03:29:16;;;;;;;11.43;6.32;;;22.00;99.90;;;;;;5012449;28;20044;-73
2021/07/26 03:31:42;;;;;;;10.05;5.60;;;22.00;99.90;;;;;;5045457;28;20033;-76
2021/07/26 03:34:07;;;;;;;7.50;5.20;;;22.10;99.90;;;;;;5042771;28;20171;-75
2021/07/26 03:36:33;;;;;;;8.65;5.88;;;21.90;99.90;;;;;;5028031;28;20490;-78
2021/07/26 03:39:37;;;;;;;9.02;6.22;;;22.00;99.90;;;;;;5055698;28;20501;-78
2021/07/26 03:42:03;;;;;;;6.28;5.57;;;22.00;99.90;;;;;;5017030;28;20391;-77
2021/07/26 03:44:28;;;;;;;6.32;5.65;;;22.10;99.90;;;;;;5043235;28;20095;-78
2021/07/26 03:46:57;;;;;;;6.60;6.00;;;22.10;99.90;;;;;;5043802;28;20446;-78
2021/07/26 03:49:23;;;;;;;6.28;5.70;;;22.10;99.90;;;;;;5042590;28;20140;-77
2021/07/26 03:51:48;;;;;;;7.90;5.90;;;22.10;99.90;;;;;;5038787;28;20145;-77
2021/07/26 03:54:14;;;;;;;9.00;5.90;;;22.30;99.90;;;;;;5042072;28;20437;-78
2021/07/26 03:56:39;;;;;;;5.78;5.22;;;22.30;99.90;;;;;;5041508;28;20033;-78
2021/07/26 03:59:05;;;;;;;6.32;5.72;;;22.30;99.90;;;;;;5036944;28;20037;-78
2021/07/26 04:01:30;;;;;;;167.43;27.13;;;22.30;99.90;;;;;;5023658;28;20144;-76
2021/07/26 04:03:56;;;;;;;11.07;6.32;;;22.30;99.90;;;;;;5028716;28;20037;-74
2021/07/26 04:06:22;;;;;;;9.30;5.78;;;22.00;99.90;;;;;;5031169;28;20396;-74
2021/07/26 04:08:50;;;;;;;13.20;7.63;;;22.10;99.90;;;;;;5031354;28;20542;-77
2021/07/26 04:11:21;;;;;;;8.23;6.40;;;22.10;99.90;;;;;;5027563;28;20076;-76
2021/07/26 04:13:53;;;;;;;7.03;6.32;;;21.90;99.90;;;;;;5046971;28;20471;-73
2021/07/26 04:16:18;;;;;;;7.72;6.05;;;21.80;99.90;;;;;;5041470;28;20076;-76
2021/07/26 04:18:46;;;;;;;10.38;5.75;;;21.90;99.90;;;;;;5018919;28;20053;-75
2021/07/26 04:21:12;;;;;;;6.25;5.65;;;21.70;99.90;;;;;;5045868;28;20036;-75
2021/07/26 04:23:38;;;;;;;8.27;4.82;;;21.60;99.90;;;;;;5035509;28;20049;-75
2021/07/26 04:26:06;;;;;;;5.32;4.82;;;21.60;99.90;;;;;;5039873;28;20072;-76
2021/07/26 04:28:31;;;;;;;5.45;4.90;;;21.60;99.90;;;;;;5018545;28;20352;-75
2021/07/26 04:30:57;;;;;;;6.82;5.05;;;21.60;99.90;;;;;;5045049;28;20052;-75
2021/07/26 04:33:22;;;;;;;5.70;4.28;;;21.70;99.90;;;;;;5039673;28;20561;-75
2021/07/26 04:35:48;;;;;;;5.20;4.43;;;21.70;99.90;;;;;;5024799;28;20037;-75
2021/07/26 04:38:14;;;;;;;5.35;4.40;;;21.60;99.90;;;;;;5020535;28;20486;-75
2021/07/26 04:40:39;;;;;;;5.70;4.32;;;21.70;99.90;;;;;;5047202;28;20045;-77
2021/07/26 04:43:05;;;;;;;7.10;4.32;;;21.60;99.90;;;;;;5046217;28;20033;-76
2021/07/26 04:45:31;;;;;;;5.60;4.07;;;21.60;99.90;;;;;;5037937;28;20817;-76
2021/07/26 04:47:56;;;;;;;5.18;3.90;;;21.40;99.90;;;;;;5038948;28;20045;-77
2021/07/26 04:50:22;;;;;;;5.13;3.30;;;21.60;99.90;;;;;;5044827;28;20512;-77
2021/07/26 04:52:47;;;;;;;4.88;3.53;;;21.40;99.90;;;;;;5031688;28;20034;-76
2021/07/26 04:55:13;;;;;;;4.45;3.30;;;21.50;99.90;;;;;;5044084;28;20032;-78
2021/07/26 04:57:39;;;;;;;4.47;3.95;;;21.60;99.90;;;;;;5030584;28;20128;-77
2021/07/26 05:00:05;;;;;;;4.30;3.35;;;21.50;99.90;;;;;;5036577;28;20122;-77
2021/07/26 05:02:31;;;;;;;5.25;2.60;;;21.50;99.90;;;;;;5035921;28;20399;-78
2021/07/26 05:04:56;;;;;;;4.15;3.30;;;21.60;99.90;;;;;;5032115;28;20038;-77
2021/07/26 05:07:22;;;;;;;4.75;3.35;;;21.60;99.90;;;;;;5035267;28;20417;-77
2021/07/26 05:09:47;;;;;;;3.45;2.85;;;21.60;99.90;;;;;;5024018;28;20372;-73
2021/07/26 05:12:14;;;;;;;4.25;2.50;;;21.70;99.90;;;;;;5031479;28;20282;-76
2021/07/26 05:14:52;;;;;;;2.63;2.42;;;21.60;99.90;;;;;;5036752;28;20099;-77
2021/07/26 05:17:23;;;;;;;3.72;2.50;;;21.70;99.90;;;;;;5044989;28;20049;-70
2021/07/26 05:19:50;;;;;;;4.50;2.70;;;21.80;99.90;;;;;;5033702;28;20401;-77
2021/07/26 05:22:15;;;;;;;2.95;2.65;;;21.90;99.90;;;;;;5064691;28;20044;-76
2021/07/26 05:24:42;;;;;;;3.10;2.20;;;21.80;99.90;;;;;;5037104;28;20470;-76
2021/07/26 05:27:08;;;;;;;4.40;2.40;;;21.80;99.90;;;;;;5038878;28;20527;-76
2021/07/26 05:29:34;;;;;;;3.50;2.30;;;21.80;99.90;;;;;;5028766;28;20184;-77
2021/07/26 05:32:43;;;;;;;2.58;2.30;;;21.70;99.90;;;;;;5034242;28;20041;-77
2021/07/26 05:35:10;;;;;;;2.85;2.45;;;21.70;99.90;;;;;;5001824;28;20128;-78
2021/07/26 05:37:35;;;;;;;2.00;1.80;;;21.70;99.90;;;;;;5050311;28;20458;-77
2021/07/26 05:40:03;;;;;;;2.97;2.08;;;21.90;99.90;;;;;;5027057;28;20223;-79
2021/07/26 05:42:28;;;;;;;3.58;2.47;;;21.80;99.90;;;;;;5033958;28;20050;-78
2021/07/26 05:44:55;;;;;;;1.60;1.50;;;21.80;99.90;;;;;;5027931;28;20040;-77
2021/07/26 05:47:21;;;;;;;2.20;2.00;;;21.90;99.90;;;;;;5016445;28;20041;-78
2021/07/26 05:49:46;;;;;;;2.15;1.95;;;22.10;99.90;;;;;;5036950;28;20041;-77
2021/07/26 05:52:12;;;;;;;1.77;1.40;;;22.10;99.90;;;;;;5047795;28;20044;-78
2021/07/26 05:54:37;;;;;;;2.95;2.20;;;22.00;99.90;;;;;;5040477;28;20125;-78
2021/07/26 05:57:09;;;;;;;4.82;2.35;;;22.10;99.90;;;;;;5042612;28;20036;-79
2021/07/26 05:59:35;;;;;;;2.58;1.80;;;22.20;99.90;;;;;;5035436;28;20040;-78
2021/07/26 06:02:00;;;;;;;4.05;2.35;;;22.30;99.90;;;;;;5019085;28;20182;-77
2021/07/26 06:04:26;;;;;;;4.80;2.17;;;22.20;99.90;;;;;;5041375;28;20146;-78
2021/07/26 06:06:54;;;;;;;3.88;2.60;;;22.20;99.90;;;;;;5059081;28;20037;-77
2021/07/26 06:09:24;;;;;;;4.70;3.05;;;22.30;99.90;;;;;;5045851;28;20103;-78
2021/07/26 06:11:50;;;;;;;3.58;2.35;;;22.40;99.90;;;;;;5046169;28;20036;-77
2021/07/26 06:14:16;;;;;;;8.13;3.63;;;22.50;99.90;;;;;;5033343;28;20044;-78
2021/07/26 06:16:43;;;;;;;6.85;2.80;;;22.40;99.90;;;;;;5021020;28;20052;-79
2021/07/26 06:19:10;;;;;;;4.45;2.67;;;22.40;99.90;;;;;;5040683;28;20037;-78
2021/07/26 06:21:52;;;;;;;5.07;3.05;;;22.40;99.90;;;;;;5026576;28;20055;-78
2021/07/26 06:24:21;;;;;;;14.30;4.20;;;22.40;99.90;;;;;;5030178;28;20053;-78
2021/07/26 06:26:47;;;;;;;4.57;2.70;;;22.60;99.90;;;;;;5029230;28;20510;-77
2021/07/26 06:29:13;;;;;;;3.72;2.30;;;22.60;99.90;;;;;;5038346;28;20383;-78
2021/07/26 06:31:40;;;;;;;3.17;2.88;;;22.50;99.90;;;;;;5027707;28;20387;-78
2021/07/26 06:34:06;;;;;;;6.40;2.53;;;22.50;99.90;;;;;;5027839;28;20074;-77
2021/07/26 06:36:32;;;;;;;4.85;2.42;;;22.70;99.90;;;;;;5050885;28;20881;-78
2021/07/26 06:38:58;;;;;;;8.13;2.95;;;22.60;99.90;;;;;;5042620;28;20037;-78
2021/07/26 06:41:24;;;;;;;4.10;3.00;;;22.70;99.90;;;;;;5048822;28;20517;-78
2021/07/26 06:43:51;;;;;;;7.03;2.78;;;22.70;99.90;;;;;;5024744;28;20103;-76
2021/07/26 06:46:16;;;;;;;3.30;2.40;;;22.90;99.90;;;;;;5038185;28;20057;-77
2021/07/26 06:48:42;;;;;;;13.88;4.40;;;22.90;99.90;;;;;;5037111;28;20084;-77
2021/07/26 06:51:07;;;;;;;10.77;3.00;;;23.10;99.90;;;;;;5025625;28;20056;-76
2021/07/26 06:53:33;;;;;;;4.80;2.20;;;23.20;99.90;;;;;;5040066;28;20050;-78
2021/07/26 06:56:04;;;;;;;4.43;2.42;;;23.20;99.90;;;;;;5025226;28;20451;-77
2021/07/26 06:58:29;;;;;;;4.68;2.50;;;23.10;99.90;;;;;;5022479;28;20052;-78
2021/07/26 07:00:55;;;;;;;2.85;2.00;;;23.10;99.90;;;;;;5026764;28;20037;-78
2021/07/26 07:03:20;;;;;;;7.13;3.08;;;23.20;99.90;;;;;;5039768;28;20546;-78
2021/07/26 07:05:46;;;;;;;6.43;2.72;;;23.20;99.90;;;;;;5033417;28;20060;-77
2021/07/26 07:08:13;;;;;;;5.63;2.65;;;23.20;99.90;;;;;;5025355;28;20037;-78
2021/07/26 07:10:39;;;;;;;5.65;2.53;;;23.20;99.90;;;;;;5027481;28;20116;-77
2021/07/26 07:13:05;;;;;;;5.20;2.63;;;23.30;99.90;;;;;;5023863;28;20037;-78
2021/07/26 07:15:31;;;;;;;5.13;2.80;;;23.50;99.90;;;;;;5024325;28;20490;-76
2021/07/26 07:17:56;;;;;;;4.32;2.92;;;23.50;99.90;;;;;;5034962;28;20032;-77
2021/07/26 07:20:22;;;;;;;3.90;3.00;;;23.70;99.90;;;;;;5026071;28;20041;-77
2021/07/26 07:22:47;;;;;;;6.03;3.15;;;23.70;99.90;;;;;;5061559;28;20042;-78
2021/07/26 07:25:13;;;;;;;5.97;3.25;;;23.90;99.90;;;;;;5026019;28;20044;-77
2021/07/26 07:27:39;;;;;;;4.88;2.95;;;24.10;99.90;;;;;;5044334;28;20041;-78
2021/07/26 07:30:06;;;;;;;5.13;3.10;;;24.00;99.90;;;;;;5041335;28;20410;-78
2021/07/26 07:32:32;;;;;;;6.75;3.20;;;24.10;99.90;;;;;;5040587;28;20064;-77
2021/07/26 07:34:58;;;;;;;4.43;3.35;;;24.30;99.90;;;;;;5036610;28;20065;-76
2021/07/26 07:37:25;;;;;;;4.68;3.55;;;24.30;99.90;;;;;;5033382;28;20078;-77
2021/07/26 07:39:50;;;;;;;3.17;2.88;;;24.40;99.90;;;;;;5038369;28;20029;-77
2021/07/26 07:42:16;;;;;;;6.75;3.38;;;24.40;99.90;;;;;;5038820;28;20405;-78
2021/07/26 07:44:42;;;;;;;3.70;3.30;;;24.50;99.90;;;;;;5044837;28;20589;-78
2021/07/26 07:47:11;;;;;;;4.82;3.60;;;24.40;99.90;;;;;;5020289;28;20388;-77
2021/07/26 07:49:36;;;;;;;4.00;3.45;;;24.40;99.90;;;;;;5025075;28;20053;-78
2021/07/26 07:52:02;;;;;;;9.05;3.95;;;24.60;99.90;;;;;;5035448;28;20382;-79
2021/07/26 07:54:28;;;;;;;13.60;3.97;;;24.70;99.90;;;;;;5038984;28;20498;-77
2021/07/26 07:56:56;;;;;;;4.93;2.97;;;24.70;99.90;;;;;;5044129;28;20475;-76
2021/07/26 07:59:22;;;;;;;8.63;3.75;;;24.70;99.90;;;;;;5055994;28;20029;-78
2021/07/26 08:01:48;;;;;;;4.93;3.53;;;24.70;99.90;;;;;;5059101;28;20110;-78
2021/07/26 08:04:15;;;;;;;3.70;3.40;;;24.80;99.90;;;;;;5053732;28;20048;-77
2021/07/26 08:06:43;;;;;;;7.68;3.53;;;24.80;99.90;;;;;;5033482;28;20039;-78
2021/07/26 08:09:08;;;;;;;11.65;4.30;;;24.80;99.90;;;;;;5029275;28;20134;-78
2021/07/26 08:11:34;;;;;;;4.47;3.17;;;24.80;99.90;;;;;;5027691;28;20495;-78
2021/07/26 08:13:59;;;;;;;5.57;3.00;;;24.90;99.90;;;;;;5046119;28;20372;-78
2021/07/26 08:16:25;;;;;;;6.25;3.80;;;24.90;99.90;;;;;;5029638;28;20051;-76
2021/07/26 08:18:51;;;;;;;10.02;3.80;;;24.90;99.90;;;;;;5030369;28;20112;-78
2021/07/26 08:21:16;;;;;;;10.55;4.07;;;25.00;99.90;;;;;;5037601;28;20137;-78
2021/07/26 08:23:42;;;;;;;4.53;3.78;;;24.90;99.90;;;;;;5039143;28;20045;-77
2021/07/26 08:26:11;;;;;;;4.90;3.30;;;24.90;99.90;;;;;;5027122;28;22692;-78
2021/07/26 08:28:37;;;;;;;5.72;4.05;;;24.80;99.90;;;;;;5038853;28;20053;-78
2021/07/26 08:31:03;;;;;;;5.50;4.03;;;24.80;99.90;;;;;;5030171;28;20057;-77
2021/07/26 08:33:28;;;;;;;6.65;3.58;;;24.70;99.90;;;;;;5043901;28;20037;-78
2021/07/26 08:35:54;;;;;;;9.90;4.25;;;24.80;99.90;;;;;;5036588;28;20055;-78
2021/07/26 08:38:20;;;;;;;6.18;3.78;;;24.80;99.90;;;;;;5032409;28;20056;-78
2021/07/26 08:40:45;;;;;;;11.70;4.55;;;24.60;99.90;;;;;;5063182;28;20052;-79
2021/07/26 08:43:12;;;;;;;4.50;3.42;;;24.80;99.90;;;;;;5040849;28;20052;-77
2021/07/26 08:45:38;;;;;;;5.57;3.47;;;24.80;99.90;;;;;;5040844;28;20069;-76
2021/07/26 08:48:07;;;;;;;5.47;3.53;;;24.80;99.90;;;;;;5035767;28;20060;-78
2021/07/26 08:50:34;;;;;;;12.25;4.63;;;24.80;99.90;;;;;;5036725;28;20033;-78
2021/07/26 08:53:02;;;;;;;9.55;5.00;;;24.80;99.90;;;;;;5013192;28;20037;-79
2021/07/26 08:55:29;;;;;;;9.27;4.38;;;24.80;99.90;;;;;;5041821;28;20390;-79
2021/07/26 08:57:55;;;;;;;6.28;3.38;;;24.90;99.90;;;;;;5048112;28;20045;-77
2021/07/26 09:00:23;;;;;;;4.13;3.30;;;24.90;99.90;;;;;;5049386;28;20063;-78
2021/07/26 09:02:56;;;;;;;4.70;3.30;;;24.90;99.90;;;;;;5030221;28;20037;-78
2021/07/26 09:05:22;;;;;;;7.07;3.42;;;24.80;99.90;;;;;;5038726;28;20491;-78
2021/07/26 09:07:49;;;;;;;13.65;3.90;;;24.80;99.90;;;;;;5046380;28;20036;-78
2021/07/26 09:10:17;;;;;;;6.05;3.83;;;24.60;99.90;;;;;;5033343;28;20060;-80
2021/07/26 09:12:45;;;;;;;6.13;3.55;;;24.60;99.90;;;;;;5037183;28;20222;-79
2021/07/26 09:15:17;;;;;;;7.60;3.78;;;24.70;99.90;;;;;;5025808;28;20563;-78
2021/07/26 09:17:44;;;;;;;7.03;4.13;;;24.80;99.90;;;;;;5039247;28;20094;-78
2021/07/26 09:20:11;;;;;;;6.65;3.70;;;24.80;99.90;;;;;;5042227;28;20544;-79
2021/07/26 09:22:39;;;;;;;5.50;3.60;;;24.70;99.90;;;;;;5048117;28;20049;-78
2021/07/26 09:25:10;;;;;;;6.75;6.05;;;24.70;99.90;;;;;;5043338;28;20029;-79
2021/07/26 09:27:37;;;;;;;7.22;5.18;;;24.70;99.90;;;;;;5038139;28;20042;-79
2021/07/26 09:30:16;;;;;;;5.32;4.10;;;24.70;99.90;;;;;;5033248;28;20068;-78
2021/07/26 09:32:42;;;;;;;5.70;3.80;;;24.70;99.90;;;;;;5040394;28;20037;-78
2021/07/26 09:35:09;;;;;;;6.80;4.95;;;24.80;99.90;;;;;;5041346;28;20029;-79
2021/07/26 09:37:37;;;;;;;8.88;4.63;;;24.80;99.90;;;;;;5032216;28;20033;-79
2021/07/26 09:40:23;;;;;;;4.25;3.95;;;24.60;99.90;;;;;;5042163;28;20052;-80
2021/07/26 09:42:49;;;;;;;6.35;4.30;;;24.50;99.90;;;;;;5042033;28;20033;-69
2021/07/26 09:45:20;;;;;;;9.27;4.43;;;24.40;99.90;;;;;;5025555;28;20049;-79
2021/07/26 09:48:05;;;;;;;4.53;4.10;;;24.40;99.90;;;;;;5028537;28;20033;-78
2021/07/26 09:50:35;;;;;;;4.78;3.97;;;24.50;99.90;;;;;;5017859;28;20037;-78
2021/07/26 09:53:24;;;;;;;5.65;4.20;;;24.30;99.90;;;;;;5047217;28;20064;-78
2021/07/26 09:55:52;;;;;;;6.43;4.20;;;24.40;99.90;;;;;;5045157;28;20122;-77
2021/07/26 09:58:20;;;;;;;11.90;4.10;;;24.30;99.90;;;;;;5039664;28;20045;-79
2021/07/26 10:00:46;;;;;;;7.55;4.55;;;24.20;99.90;;;;;;5042490;28;20405;-79
2021/07/26 10:03:15;;;;;;;6.57;5.07;;;24.20;99.90;;;;;;5052501;28;20075;-78
2021/07/26 10:05:42;;;;;;;14.75;6.65;;;24.10;99.90;;;;;;5045912;28;20471;-80
2021/07/26 10:08:09;;;;;;;11.60;5.82;;;24.10;99.90;;;;;;5035423;28;20446;-80
2021/07/26 10:10:37;;;;;;;14.77;4.63;;;24.10;99.90;;;;;;5051169;28;20503;-79
2021/07/26 10:13:03;;;;;;;27.35;8.32;;;23.90;99.90;;;;;;5038964;28;20151;-79
2021/07/26 10:15:31;;;;;;;12.32;5.63;;;23.90;99.90;;;;;;5028416;28;20029;-77
2021/07/26 10:17:58;;;;;;;19.75;6.82;;;23.80;99.90;;;;;;5026227;28;20033;-78
2021/07/26 10:20:26;;;;;;;81.25;13.63;;;23.80;99.90;;;;;;5032551;28;20036;-79
2021/07/26 10:22:54;;;;;;;12.98;5.45;;;23.70;99.90;;;;;;4997178;28;20557;-78
2021/07/26 10:25:28;;;;;;;9.55;4.80;;;23.70;99.90;;;;;;5031750;28;20041;-76
2021/07/26 10:28:00;;;;;;;13.15;5.47;;;23.70;99.90;;;;;;5009842;28;20042;-79
2021/07/26 10:30:37;;;;;;;13.85;6.28;;;23.70;99.90;;;;;;4998234;28;20400;-77
2021/07/26 10:33:04;;;;;;;42.42;9.48;;;23.70;99.90;;;;;;4982368;28;20442;-78
2021/07/26 10:35:37;;;;;;;6.05;4.63;;;23.70;99.90;;;;;;5010119;28;20030;-79
2021/07/26 10:38:04;;;;;;;10.43;5.22;;;23.60;99.90;;;;;;4993800;28;20037;-78
2021/07/26 10:40:31;;;;;;;8.35;5.32;;;23.50;99.90;;;;;;5001016;28;20496;-77
2021/07/26 10:43:02;;;;;;;44.28;9.32;;;23.40;99.90;;;;;;5007333;28;20042;-79
2021/07/26 10:45:33;;;;;;;20.17;8.23;;;23.40;99.90;;;;;;4999792;28;20544;-79
2021/07/26 10:48:21;;;;;;;21.63;7.40;;;23.50;99.90;;;;;;5014383;28;20400;-79
2021/07/26 10:50:51;;;;;;;16.00;5.63;;;23.50;99.90;;;;;;5011400;28;20038;-78
2021/07/26 10:53:35;;;;;;;13.77;5.47;;;23.50;99.90;;;;;;4994956;28;20077;-79
2021/07/26 10:56:11;;;;;;;10.38;5.82;;;23.40;99.90;;;;;;5002610;28;20444;-80
2021/07/26 10:58:39;;;;;;;32.65;9.27;;;23.30;99.90;;;;;;4996057;28;20534;-80
2021/07/26 11:01:20;;;;;;;36.38;10.15;;;23.20;99.90;;;;;;5006301;28;20034;-79
2021/07/26 11:03:48;;;;;;;740.70;107.68;;;22.80;99.90;;;;;;5005726;28;20046;-76
2021/07/26 11:06:35;;;;;;;542.60;78.20;;;22.40;99.90;;;;;;4996401;28;20106;-75
2021/07/26 11:09:19;;;;;;;1845.65;290.13;;;21.90;99.90;;;;;;4970009;28;20076;-74
2021/07/26 11:11:48;;;;;;;436.52;60.65;;;20.90;99.90;;;;;;5003789;28;21149;-72
2021/07/26 11:14:14;;;;;;;1024.05;149.98;;;20.50;99.90;;;;;;4986583;28;20038;-70
2021/07/26 11:16:53;;;;;;;1034.85;156.23;;;20.40;99.90;;;;;;5001853;28;20056;-73
2021/07/26 11:19:38;;;;;;;173.07;33.08;;;20.30;99.90;;;;;;4995614;28;20026;-73
2021/07/26 11:22:24;;;;;;;38.90;16.02;;;20.10;99.90;;;;;;4992825;28;20481;-73
2021/07/26 11:24:52;;;;;;;37.97;16.52;;;20.10;99.90;;;;;;4999756;28;20046;-69
2021/07/26 11:27:33;;;;;;;50.13;19.73;;;20.40;99.90;;;;;;4997235;28;20069;-74
2021/07/26 11:29:59;;;;;;;113.50;30.33;;;20.50;99.90;;;;;;4986136;28;20077;-69
2021/07/26 11:32:26;;;;;;;81.13;24.15;;;20.50;99.90;;;;;;4992866;28;20042;-69
2021/07/26 11:34:59;;;;;;;410.77;70.28;;;20.50;99.90;;;;;;4985385;28;20030;-68
2021/07/26 11:37:32;;;;;;;89.28;28.35;;;20.60;99.90;;;;;;5002614;28;20042;-67
2021/07/26 11:40:07;;;;;;;32.88;19.88;;;20.80;99.90;;;;;;4988150;28;20136;-69
2021/07/26 11:42:34;;;;;;;25.25;16.75;;;23.10;99.90;;;;;;5003994;28;20034;-70
2021/07/26 11:45:04;;;;;;;26.10;18.98;;;24.10;99.90;;;;;;4993848;28;20092;-70
2021/07/26 11:47:41;;;;;;;33.05;19.50;;;24.20;99.90;;;;;;4990594;28;20046;-70
2021/07/26 11:50:14;;;;;;;25.23;18.13;;;24.40;99.90;;;;;;4996917;28;20122;-69
2021/07/26 11:53:00;;;;;;;28.50;18.92;;;24.20;99.90;;;;;;5002660;28;20058;-69
2021/07/26 11:55:30;;;;;;;30.90;20.63;;;24.80;99.90;;;;;;4974062;28;20110;-70
2021/07/26 11:57:57;;;;;;;30.80;19.77;;;24.80;99.90;;;;;;5024322;28;20045;-71
2021/07/26 12:00:31;;;;;;;18.02;15.95;;;24.50;99.90;;;;;;5005000;28;20073;-70
2021/07/26 12:02:58;;;;;;;18.08;15.52;;;24.70;99.90;;;;;;5005145;28;20042;-70
2021/07/26 12:05:29;;;;;;;86.30;27.42;;;25.20;99.90;;;;;;5001882;28;20507;-69
2021/07/26 12:07:55;;;;;;;39.60;20.02;;;25.80;99.90;;;;;;5010386;28;20034;-70
2021/07/26 12:10:32;;;;;;;13.82;12.38;;;26.10;99.90;;;;;;4986032;28;20066;-68
2021/07/26 12:13:09;;;;;;;14.30;11.85;;;25.20;99.90;;;;;;5003303;28;20058;-72
2021/07/26 12:15:35;;;;;;;11.82;9.88;;;25.10;99.90;;;;;;4989920;28;20094;-70
2021/07/26 12:18:02;;;;;;;12.70;10.05;;;25.50;99.90;;;;;;5003988;28;20132;-71
2021/07/26 12:20:27;;;;;;;13.73;10.70;;;27.30;99.90;;;;;;4998347;28;20058;-70
2021/07/26 12:22:53;;;;;;;10.77;9.68;;;28.70;99.90;;;;;;5047818;28;20036;-71
2021/07/26 12:25:22;;;;;;;13.38;8.48;;;28.60;99.90;;;;;;5016877;28;20075;-72
2021/07/26 12:28:04;;;;;;;12.80;7.93;;;28.10;99.90;;;;;;5028722;28;20037;-71
2021/07/26 12:30:42;;;;;;;11.98;7.60;;;27.50;99.90;;;;;;5015235;28;20041;-71
2021/07/26 12:33:09;;;;;;;19.05;8.98;;;27.20;99.90;;;;;;5027874;28;20049;-71
2021/07/26 12:35:35;;;;;;;11.65;7.30;;;27.70;99.90;;;;;;5047010;28;20051;-72
2021/07/26 12:38:17;;;;;;;9.50;6.57;;;27.90;99.90;;;;;;5033872;28;20041;-71
2021/07/26 12:41:05;;;;;;;9.07;7.35;;;27.10;99.90;;;;;;5033015;28;20048;-72
2021/07/26 12:43:31;;;;;;;9.82;6.72;;;27.90;99.90;;;;;;5008235;28;20045;-71
2021/07/26 12:45:59;;;;;;;7.10;6.25;;;27.60;99.90;;;;;;5035450;28;20092;-71
2021/07/26 12:48:26;;;;;;;7.97;6.40;;;28.00;99.90;;;;;;5059390;28;20032;-72
2021/07/26 12:50:52;;;;;;;8.02;6.38;;;28.90;99.90;;;;;;5031214;28;20041;-71
2021/07/26 12:53:19;;;;;;;7.50;6.80;;;29.00;99.90;;;;;;5033443;28;20064;-72
2021/07/26 12:55:46;;;;;;;8.63;6.57;;;29.80;99.90;;;;;;5027480;28;20155;-72
2021/07/26 12:58:18;;;;;;;7.45;6.75;;;31.00;99.90;;;;;;5036083;28;20140;-73
2021/07/26 13:00:47;;;;;;;7.47;6.78;;;31.90;99.90;;;;;;5027503;28;20046;-73